Home > Products > Valid Products > TAF

000
FTUS41 KPBZ 241500 AAB
TAFPIT
TAF AMD
KPIT 241501Z 2415/2518 20015G35KT P6SM BKN050
     FM241700 20020G45KT P6SM BKN050
     FM242100 23014G30KT P6SM SCT025 BKN050
     FM250600 23010G20KT P6SM BKN025=



000
FTUS41 KPBZ 241300 AAA
TAFBVI
TAF AMD
KBVI 241326Z 2413/2512 18010G22KT P6SM BKN050
     FM241600 20020G45KT P6SM BKN050
     FM242100 23014G30KT P6SM BKN050
     FM250600 23010G20KT P6SM BKN025=



000
FTUS41 KPBZ 241300 AAA
TAFPIT
TAF AMD
KPIT 241325Z 2413/2518 18010G22KT P6SM BKN050
     FM241600 20020G45KT P6SM BKN050
     FM242100 23014G30KT P6SM BKN050
     FM250600 23010G20KT P6SM BKN025=



000
FTUS41 KPBZ 241300 AAA
TAFAGC
TAF AMD
KAGC 241325Z 2413/2512 18010G22KT P6SM BKN050
     FM241600 20020G45KT P6SM BKN050
     FM242100 23014G30KT P6SM BKN050
     FM250600 23010G20KT P6SM BKN025=



000
FTUS41 KPBZ 241200 AAA
TAFDUJ
TAF AMD
KDUJ 241239Z 2413/2512 21012G19KT P6SM VCSH OVC040
     FM241600 18013G29KT P6SM BKN050
     FM241800 20020G45KT P6SM BKN050
     FM242300 23014G30KT P6SM BKN050
     FM250500 23010G20KT P6SM BKN025=



000
FTUS41 KPBZ 241100 CCA
TAFZZV
TAF COR
KZZV 241149Z 2412/2512 20016G21KT P6SM FEW019 SCT024 OVC070
     FM241500 20013G29KT P6SM BKN050
     FM241600 20020G45KT P6SM BKN050
     FM242200 24014G30KT P6SM BKN050
     FM250500 24010G20KT P6SM BKN025=



000
FTUS41 KPBZ 241100
TAFHLG
TAF
KHLG 241120Z 2412/2512 21018G29KT P6SM VCSH BKN035 OVC045
     FM241600 21020G45KT P6SM BKN050
     FM242200 24017G30KT P6SM BKN050
     FM250600 23010G20KT P6SM BKN025=



000
FTUS41 KPBZ 241100
TAFZZV
TAF
KZZV 241120Z 2412/2512 20011KT P6SM SCT020 BKN024 OVC040
     FM241500 20013G29KT P6SM BKN050
     FM241600 20020G45KT P6SM BKN050
     FM242200 24014G30KT P6SM BKN050
     FM250500 24010G20KT P6SM BKN025=



000
FTUS41 KPBZ 241100
TAFAGC
TAF
KAGC 241120Z 2412/2512 20015G28KT P6SM VCSH BKN040 OVC050
     FM241600 20020G45KT P6SM BKN050
     FM242100 23014G30KT P6SM BKN050
     FM250600 23010G20KT P6SM BKN025=



000
FTUS41 KPBZ 241100
TAFDUJ
TAF
KDUJ 241120Z 2412/2512 18012G19KT 5SM BR VCSH OVC035
     FM241600 18013G29KT P6SM BKN050
     FM241800 20020G45KT P6SM BKN050
     FM242300 23014G30KT P6SM BKN050
     FM250500 23010G20KT P6SM BKN025=



000
FTUS41 KPBZ 241100
TAFBVI
TAF
KBVI 241120Z 2412/2512 21013G22KT P6SM VCSH BKN040
     FM241500 21013G29KT P6SM BKN050
     FM241600 20020G45KT P6SM BKN050
     FM242100 23014G30KT P6SM BKN050
     FM250600 23010G20KT P6SM BKN025=



000
FTUS41 KPBZ 241100
TAFMGW
TAF
KMGW 241120Z 2412/2512 21010G17KT P6SM FEW045 OVC070
     FM241500 21013G29KT P6SM BKN050
     FM241600 20017G39KT P6SM BKN050
     FM242100 23014G30KT P6SM BKN050
     FM250500 23010G20KT P6SM BKN025=



000
FTUS41 KPBZ 241100
TAFPIT
TAF
KPIT 241120Z 2412/2518 21014G23KT P6SM VCSH BKN040 OVC060
     FM241600 20020G45KT P6SM BKN050
     FM242100 23014G30KT P6SM BKN050
     FM250600 23010G20KT P6SM BKN025=



000
FTUS41 KPBZ 241100
TAFLBE
TAF
KLBE 241120Z 2412/2512 20019G27KT P6SM VCSH BKN045 OVC070
     FM241500 19013G29KT P6SM BKN050
     FM241600 20020G45KT P6SM BKN050
     FM242100 23014G30KT P6SM BKN050
     FM250600 23010G20KT P6SM BKN025=



000
FTUS41 KPBZ 240800 AAA
TAFMGW
TAF AMD
KMGW 240841Z 2409/2506 18010G17KT P6SM OVC060
     FM241500 19013G29KT P6SM BKN050
     FM241600 20017G39KT P6SM BKN050
     FM242100 23014G30KT P6SM BKN050=



000
FTUS41 KPBZ 240800 AAA
TAFZZV
TAF AMD
KZZV 240841Z 2409/2506 20018G30KT P6SM SCT013 BKN018 OVC026
     FM241500 19013G29KT P6SM BKN050
     FM241600 20020G45KT P6SM BKN050
     FM242200 24014G30KT P6SM BKN050=



000
FTUS41 KPBZ 240800 AAA
TAFLBE
TAF AMD
KLBE 240840Z 2409/2506 18010G20KT P6SM SCT012 BKN050 BKN080
     FM241500 19013G29KT P6SM BKN050
     FM241600 20020G45KT P6SM BKN050
     FM242100 23014G30KT P6SM BKN050=



000
FTUS41 KPBZ 240800 AAA
TAFHLG
TAF AMD
KHLG 240840Z 2409/2506 19015G27KT P6SM OVC045
     FM241600 20020G45KT P6SM BKN050
     FM242200 24017G30KT P6SM BKN050=



000
FTUS41 KPBZ 240800 AAA
TAFPIT
TAF AMD
KPIT 240839Z 2409/2512 18012G22KT P6SM VCSH SCT012 OVC050
     FM241500 19013G29KT P6SM BKN050
     FM241600 20020G45KT P6SM BKN050
     FM242100 23014G30KT P6SM BKN050=



000
FTUS41 KPBZ 240800 AAA
TAFAGC
TAF AMD
KAGC 240839Z 2409/2506 18012G22KT P6SM SCT012 OVC050
     FM241500 19013G29KT P6SM BKN050
     FM241600 20020G45KT P6SM BKN050
     FM242100 23014G30KT P6SM BKN050=



000
FTUS41 KPBZ 240500 CCA
TAFLBE
TAF COR
KLBE 240549Z 2406/2506 12017G26KT P6SM -RA FEW035 BKN045 OVC100
      TEMPO 2407/2409 16012G20KT SCT035
     FM240900 19013KT P6SM -SHRA OVC012
     FM241500 19013G29KT P6SM BKN050
     FM241600 20020G45KT P6SM BKN050
     FM242100 23014G30KT P6SM BKN050=



000
FTUS41 KPBZ 240500 CCA
TAFAGC
TAF COR
KAGC 240549Z 2406/2506 15013G20KT 5SM -RA BR BKN045 OVC060
      TEMPO 2406/2408 16012G20KT P6SM NSW SCT035
     FM240800 19013KT P6SM -SHRA OVC012
     FM241500 19013G29KT P6SM BKN050
     FM241600 20020G45KT P6SM BKN050
     FM242100 23014G30KT P6SM BKN050=



000
FTUS41 KPBZ 240500
TAFZZV
TAF
KZZV 240538Z 2406/2506 17014G23KT P6SM FEW030 SCT050 OVC070
     FM240700 19013KT P6SM -SHRA SCT012 OVC025
     FM241500 19013G29KT P6SM BKN050
     FM241600 20020G45KT P6SM BKN050
     FM242200 24014G30KT P6SM BKN050=



000
FTUS41 KPBZ 240500
TAFDUJ
TAF
KDUJ 240538Z 2406/2506 13013G20KT 3SM -RA BR OVC008
      TEMPO 2407/2409 16012G20KT P6SM NSW SCT035
     FM240900 18013KT P6SM -SHRA OVC007
     FM241600 18013G29KT P6SM BKN050
     FM241800 20020G45KT P6SM BKN050
     FM242300 23014G30KT P6SM BKN050=



000
FTUS41 KPBZ 240500
TAFBVI
TAF
KBVI 240538Z 2406/2506 13010KT P6SM BKN100
      TEMPO 2406/2408 16012G20KT P6SM SCT035
     FM240800 19013KT P6SM -SHRA OVC012
     FM241500 19013G29KT P6SM BKN050
     FM241600 20020G45KT P6SM BKN050
     FM242100 23014G30KT P6SM BKN050
      AMD NOT SKED=



000
FTUS41 KPBZ 240500
TAFAGC
TAF
KAGC 240538Z 2406/2506 15013G20KT P6SM -RA BKN080 OVC100
      TEMPO 2406/2408 16012G20KT P6SM NSW SCT035
     FM240800 19013KT P6SM -SHRA OVC012
     FM241500 19013G29KT P6SM BKN050
     FM241600 20020G45KT P6SM BKN050
     FM242100 23014G30KT P6SM BKN050=



000
FTUS41 KPBZ 240500
TAFMGW
TAF
KMGW 240538Z 2406/2506 13011KT P6SM -RA OVC080
      TEMPO 2406/2407 16012G20KT P6SM NSW SCT035
     FM240700 19014G19KT P6SM -SHRA SCT012 OVC025
     FM241500 19013G29KT P6SM BKN050
     FM241600 20017G39KT P6SM BKN050
     FM242100 23014G30KT P6SM BKN050=



000
FTUS41 KPBZ 240500
TAFLBE
TAF
KLBE 240538Z 2406/2506 12017G26KT 5SM -RA BR FEW035 BKN045 OVC100
      TEMPO 2407/2409 16012G20KT SCT035
     FM240900 19013KT P6SM -SHRA OVC012
     FM241500 19013G29KT P6SM BKN050
     FM241600 20020G45KT P6SM BKN050
     FM242100 23014G30KT P6SM BKN050=



000
FTUS41 KPBZ 240500
TAFPIT
TAF
KPIT 240538Z 2406/2512 13014KT 6SM -RA BR BKN080 OVC100
      TEMPO 2406/2408 16012G20KT P6SM NSW SCT035
     FM240800 19013KT P6SM -SHRA OVC012
     FM241500 19013G29KT P6SM BKN050
     FM241600 20020G45KT P6SM BKN050
     FM242100 23014G30KT P6SM BKN050=



000
FTUS41 KPBZ 240500
TAFHLG
TAF
KHLG 240538Z 2406/2506 15017G24KT P6SM -RA BKN050 OVC090
      TEMPO 2406/2407 16012G20KT P6SM NSW SCT035
     FM240700 19013KT P6SM -SHRA OVC012
     FM241500 19013G29KT P6SM BKN050
     FM241600 20020G45KT P6SM BKN050
     FM242200 24017G30KT P6SM BKN050=



000
FTUS41 KPBZ 240300 AAA
TAFPIT
TAF AMD
KPIT 240305Z 2403/2506 14008KT 6SM -RA BKN050
     FM240500 16012KT 5SM -RA OVC015
      TEMPO 2406/2409 2SM -RA BR OVC008
     FM241100 17013KT P6SM OVC025
     FM241500 19018G38KT P6SM BKN050=



000
FTUS41 KPBZ 240200 AAA
TAFZZV
TAF AMD
KZZV 240209Z 2402/2424 15012G19KT 6SM -RA OVC060
     FM240400 17012G18KT 5SM -RA OVC020
      TEMPO 2404/2407 3SM -RA BR OVC010
     FM240900 19013KT P6SM OVC025
     FM241400 20017G35KT P6SM BKN050=



000
FTUS41 KPBZ 240200 AAA
TAFLBE
TAF AMD
KLBE 240208Z 2402/2424 15012G21KT 6SM -RA BKN050
     FM240500 18012G22KT 5SM -RA OVC020
      TEMPO 2406/2409 2SM -RA BR OVC008
     FM241100 17013KT P6SM OVC025
     FM241500 20020G39KT P6SM BKN050=



000
FTUS41 KPBZ 232300
TAFHLG
TAF
KHLG 232326Z 2400/2424 13010KT 6SM -RA BKN050
     FM240300 16011G19KT 5SM -RA OVC015
      TEMPO 2405/2408 2SM -RA BR OVC008
     FM241000 17013KT P6SM OVC025
     FM241400 20018G37KT P6SM BKN050=



000
FTUS41 KPBZ 232300
TAFMGW
TAF
KMGW 232326Z 2400/2424 16011G18KT 6SM -RA OVC060
     FM240300 17012G20KT 4SM -RA OVC015
      TEMPO 2404/2407 2SM -RA BR OVC008
     FM241000 18012KT P6SM OVC025
     FM241400 19016G34KT P6SM BKN050=



000
FTUS41 KPBZ 232300
TAFBVI
TAF
KBVI 232326Z 2400/2424 13010KT P6SM BKN100
     FM240200 15010KT 6SM -RA OVC040
     FM240400 18012G18KT 5SM -RA OVC015
      TEMPO 2405/2408 2SM -RA BR OVC008
     FM241200 17012KT P6SM OVC025
     FM241500 19018G38KT P6SM BKN050
      AMD NOT SKED 2402/2412=



000
FTUS41 KPBZ 232300
TAFZZV
TAF
KZZV 232326Z 2400/2424 15012G19KT 6SM -RA OVC060
     FM240200 17012G18KT 5SM -RA OVC020
      TEMPO 2404/2407 3SM -RA BR OVC010
     FM240900 19013KT P6SM OVC025
     FM241400 20017G35KT P6SM BKN050=



000
FTUS41 KPBZ 232300
TAFDUJ
TAF
KDUJ 232326Z 2400/2424 13011KT P6SM BKN100
     FM240300 14012KT 6SM -RA BKN040
     FM240500 15012G20KT 5SM -RA OVC015
      TEMPO 2406/2410 2SM RA BR OVC008
     FM241300 18012G22KT P6SM OVC025
     FM241500 19017G35KT P6SM BKN050=



000
FTUS41 KPBZ 232300
TAFLBE
TAF
KLBE 232326Z 2400/2424 18010KT P6SM BKN120
     FM240200 15012KT 6SM -RA BKN050
     FM240500 18012G22KT 5SM -RA OVC020
      TEMPO 2406/2409 2SM -RA BR OVC008
     FM241100 17013KT P6SM OVC025
     FM241500 20020G39KT P6SM BKN050=



000
FTUS41 KPBZ 232300
TAFAGC
TAF
KAGC 232326Z 2400/2424 13010KT P6SM OVC100
     FM240100 14011KT 6SM -RA BKN050
     FM240400 15012KT 5SM -RA OVC015
      TEMPO 2406/2409 2SM -RA BR OVC008
     FM241100 17013KT P6SM OVC025
     FM241500 19018G38KT P6SM BKN050=



000
FTUS41 KPBZ 232300
TAFPIT
TAF
KPIT 232326Z 2400/2506 13012KT P6SM OVC100
     FM240100 14008KT 6SM -RA BKN050
     FM240400 16012KT 5SM -RA OVC015
      TEMPO 2406/2409 2SM -RA BR OVC008
     FM241100 17013KT P6SM OVC025
     FM241500 19018G38KT P6SM BKN050=



000
FTUS41 KPBZ 232000 AAA
TAFPIT
TAF AMD
KPIT 232058Z 2321/2424 14008KT P6SM BKN250
     FM240200 15008KT 6SM -RA BKN050
     FM240400 18012KT 5SM -RA OVC015
     FM241100 17013KT P6SM OVC025
     FM241500 19017G35KT P6SM BKN050=



000
FTUS41 KPBZ 231700
TAFDUJ
TAF
KDUJ 231733Z 2318/2418 14005KT P6SM BKN250
     FM240300 14012KT 6SM -RA BKN040
     FM240600 15012G22KT 5SM -RA OVC020
     FM241300 17012G22KT P6SM OVC025
     FM241500 19017G35KT P6SM BKN050=



000
FTUS41 KPBZ 231700
TAFHLG
TAF
KHLG 231733Z 2318/2418 18009KT P6SM BKN250
     FM240100 15010KT 6SM -RA BKN050
     FM240300 18012G20KT 5SM -RA OVC015
     FM241000 17013KT P6SM OVC025
     FM241400 19017G35KT P6SM BKN050=



000
FTUS41 KPBZ 231700
TAFPIT
TAF
KPIT 231733Z 2318/2424 17006KT P6SM BKN250
     FM240200 15008KT 6SM -RA BKN050
     FM240400 18012KT 5SM -RA OVC015
     FM241100 17013KT P6SM OVC025
     FM241500 19017G35KT P6SM BKN050=



000
FTUS41 KPBZ 231700
TAFBVI
TAF
KBVI 231733Z 2318/2418 14006KT P6SM BKN035
     FM240200 15010KT 6SM -RA OVC035
     FM240400 18012G18KT 5SM -RA OVC015
     FM241100 17013KT P6SM OVC025
     FM241500 19017G35KT P6SM BKN050=



000
FTUS41 KPBZ 231700
TAFZZV
TAF
KZZV 231733Z 2318/2418 18008KT P6SM BKN100
     FM240000 15010KT 6SM -RA BKN050
     FM240200 17012G18KT 5SM -RA OVC015
     FM240900 17013KT P6SM OVC025
     FM241400 19017G35KT P6SM BKN050=



000
FTUS41 KPBZ 231700
TAFLBE
TAF
KLBE 231733Z 2318/2418 18006KT P6SM BKN150
     FM240300 15010KT 6SM -RA BKN050
     FM240600 18012G22KT 5SM -RA OVC020
     FM241100 17013KT P6SM OVC025
     FM241500 19017G35KT P6SM BKN050=



000
FTUS41 KPBZ 231700
TAFAGC
TAF
KAGC 231733Z 2318/2418 14006KT P6SM SCT250
     FM240200 14010KT 6SM -RA BKN050
     FM240400 18012G18KT 5SM -RA OVC015
     FM241100 17013KT P6SM OVC025
     FM241500 19017G35KT P6SM BKN050=



000
FTUS41 KPBZ 231700
TAFMGW
TAF
KMGW 231733Z 2318/2418 VRB03KT P6SM BKN250
     FM240100 15010KT 6SM -RA BKN050
     FM240300 17012G20KT 4SM -RA OVC015
     FM241000 17013KT P6SM OVC025
     FM241400 19017G35KT P6SM BKN050=



000
FTUS41 KPBZ 231400 AAA
TAFPIT
TAF AMD
KPIT 231457Z 2315/2418 17006KT P6SM BKN100
     FM240200 15008KT 6SM -RA BKN050
     FM240400 18012KT 5SM -RA OVC025
     FM241100 17010KT P6SM OVC025
     FM241400 20012G22KT P6SM BKN050=



000
FTUS41 KPBZ 231100
TAFAGC
TAF
KAGC 231129Z 2312/2412 16006KT P6SM BKN050
     FM231700 17006KT P6SM SCT050 BKN200
     FM240200 14010KT 6SM -RA BKN050
     FM240400 18012G18KT 5SM -RA OVC025=



000
FTUS41 KPBZ 231100
TAFBVI
TAF
KBVI 231129Z 2312/2412 19006KT P6SM OVC050
      TEMPO 2312/2314 6SM -RA BKN035
     FM231700 17006KT P6SM SCT050 BKN200
     FM240200 15010KT 6SM -RA OVC040
     FM240400 18012G18KT 5SM -RA OVC020=



000
FTUS41 KPBZ 231100
TAFLBE
TAF
KLBE 231129Z 2312/2412 20006KT P6SM OVC060
     FM231700 17006KT P6SM SCT050 BKN200
     FM240200 15010KT 6SM -RA BKN050
     FM240600 18012G22KT 5SM -RA OVC030=



000
FTUS41 KPBZ 231100
TAFDUJ
TAF
KDUJ 231129Z 2312/2412 22008KT P6SM BKN040
      TEMPO 2312/2314 6SM -RA BKN035
     FM231600 17010KT P6SM SCT040 BKN060
     FM240300 17009KT 6SM -RA BKN040
     FM240600 16012G20KT 5SM -RA OVC020=



000
FTUS41 KPBZ 231100
TAFMGW
TAF
KMGW 231129Z 2312/2412 18005KT P6SM BKN080
     FM231700 17006KT P6SM SCT080 BKN200
     FM240100 15010KT 6SM -RA BKN050
     FM240600 17012G20KT 6SM -RA OVC030=



000
FTUS41 KPBZ 231100
TAFHLG
TAF
KHLG 231129Z 2312/2412 20008KT P6SM BKN080
     FM231700 17006KT P6SM SCT050 BKN200
     FM240200 15010KT 6SM -RA BKN050
     FM240400 18012G20KT 5SM -RA OVC030=



000
FTUS41 KPBZ 231100
TAFZZV
TAF
KZZV 231129Z 2312/2412 15005KT P6SM BKN060
     FM231600 17006KT P6SM SCT040 BKN200
     FM240200 15010KT 6SM -RA BKN050
     FM240400 17012G18KT 5SM -RA OVC030=



000
FTUS41 KPBZ 231100
TAFPIT
TAF
KPIT 231129Z 2312/2418 17006KT P6SM BKN050
     FM231700 17006KT P6SM SCT050 BKN200
     FM240200 15008KT 6SM -RA BKN050
     FM240400 18012G18KT 5SM -RA OVC025
     FM241200 20012G20KT P6SM OVC025=



000
FTUS41 KPBZ 230800 AAA
TAFPIT
TAF AMD
KPIT 230857Z 2309/2412 19006KT P6SM BKN050
     FM231700 17006KT P6SM SCT050 BKN200
     FM240100 14010KT P6SM OVC080
     FM240400 15010KT P6SM -RA BKN035=



000
FTUS41 KPBZ 230500
TAFPIT
TAF
KPIT 230528Z 2306/2412 19006KT P6SM OVC080
     FM231700 17006KT P6SM SCT050 BKN200
     FM240100 14010KT P6SM OVC080
     FM240400 15010KT P6SM -RA BKN035=



000
FTUS41 KPBZ 230500
TAFHLG
TAF
KHLG 230528Z 2306/2406 20008KT P6SM BKN080
     FM231700 17006KT P6SM SCT050 BKN200
     FM240400 15010KT P6SM -RA BKN035=



000
FTUS41 KPBZ 230500
TAFDUJ
TAF
KDUJ 230528Z 2306/2406 20010KT P6SM OVC050
     FM231100 VRB05KT 6SM -RA BKN035
     FM231600 17010KT P6SM BKN035
     FM232300 15007KT P6SM BKN070=



000
FTUS41 KPBZ 230500
TAFMGW
TAF
KMGW 230528Z 2306/2406 18005KT P6SM OVC080
     FM231700 17006KT P6SM SCT080 BKN200
     FM240200 15010KT P6SM -RA BKN050=



000
FTUS41 KPBZ 230500
TAFBVI
TAF
KBVI 230528Z 2306/2406 19006KT P6SM OVC080
     FM231700 17006KT P6SM SCT050 BKN200
     FM240400 15010KT P6SM -RA BKN035
      AMD NOT SKED=



000
FTUS41 KPBZ 230500
TAFAGC
TAF
KAGC 230528Z 2306/2406 19006KT P6SM OVC080
     FM231700 17006KT P6SM SCT050 BKN200
     FM240100 14010KT P6SM OVC080
     FM240300 15010KT P6SM -RA BKN035=



000
FTUS41 KPBZ 230500
TAFLBE
TAF
KLBE 230528Z 2306/2406 20006KT P6SM OVC080
     FM231700 17006KT P6SM SCT050 BKN200
     FM240400 15010KT P6SM -RA BKN035=



000
FTUS41 KPBZ 230500
TAFZZV
TAF
KZZV 230528Z 2306/2406 VRB05KT P6SM BKN100
     FM231600 17006KT P6SM SCT040 BKN200
     FM240300 15010KT 6SM -RA BKN025=



000
FTUS41 KPBZ 230300 AAA
TAFDUJ
TAF AMD
KDUJ 230331Z 2304/2324 20010KT P6SM OVC040
     FM231200 VRB05KT 6SM -RA BKN025
     FM231600 17010KT P6SM OVC080=



000
FTUS41 KPBZ 230200 AAA
TAFPIT
TAF AMD
KPIT 230257Z 2303/2406 19006KT P6SM OVC080
     FM231700 17006KT P6SM SCT080 BKN250
     FM240100 14010KT P6SM OVC080
     FM240400 15010KT 6SM -RA BKN025=



000
FTUS41 KPBZ 222300
TAFDUJ
TAF
KDUJ 222320Z 2300/2324 20010KT P6SM OVC040
     FM231800 17010KT P6SM BKN025=



000
FTUS41 KPBZ 222300
TAFZZV
TAF
KZZV 222320Z 2300/2324 VRB05KT P6SM BKN100
     FM231600 17006KT P6SM SCT080 BKN250=



000
FTUS41 KPBZ 222300
TAFAGC
TAF
KAGC 222320Z 2300/2324 19006KT P6SM OVC080
     FM231700 17006KT P6SM SCT080 BKN250=



000
FTUS41 KPBZ 222300
TAFLBE
TAF
KLBE 222320Z 2300/2324 20006KT P6SM OVC080
     FM231700 17006KT P6SM SCT080 BKN250=



000
FTUS41 KPBZ 222300
TAFHLG
TAF
KHLG 222320Z 2300/2324 19006KT P6SM OVC080
     FM231700 17006KT P6SM SCT080 BKN250=



000
FTUS41 KPBZ 222300
TAFMGW
TAF
KMGW 222320Z 2300/2324 18005KT P6SM OVC080
      TEMPO 2311/2315 BKN025
     FM231700 17006KT P6SM SCT080 BKN250=



000
FTUS41 KPBZ 222300
TAFBVI
TAF
KBVI 222320Z 2300/2324 19006KT P6SM OVC080
     FM231700 17006KT P6SM SCT080 BKN250
      AMD NOT SKED 2302/2312=



000
FTUS41 KPBZ 222300
TAFPIT
TAF
KPIT 222320Z 2300/2406 18006KT P6SM OVC080
     FM231700 17006KT P6SM SCT080 BKN250
     FM240100 14010KT P6SM OVC080
     FM240400 15010KT 6SM -RA BKN025=



000
FTUS41 KPBZ 222100 AAD
TAFDUJ
TAF AMD
KDUJ 222107Z 2221/2318 21008KT P6SM OVC050=



000
FTUS41 KPBZ 222000 AAB
TAFPIT
TAF AMD
KPIT 222055Z 2221/2324 21008KT P6SM OVC060
     FM230000 21005KT P6SM BKN060=



000
FTUS41 KPBZ 222000 AAC
TAFDUJ
TAF AMD
KDUJ 222009Z 2220/2318 21008KT 5SM BR OVC010
     FM222200 21010KT P6SM OVC025
     FM230400 21008KT P6SM OVC050=



000
FTUS41 KPBZ 222000 AAB
TAFLBE
TAF AMD
KLBE 222007Z 2220/2318 21010KT P6SM OVC050
     FM230200 22006KT P6SM BKN070=



000
FTUS41 KPBZ 221900 AAB
TAFDUJ
TAF AMD
KDUJ 221910Z 2219/2318 21008KT 4SM BR OVC009
     FM222200 21010KT P6SM OVC025
     FM230400 21008KT P6SM OVC050=



000
FTUS41 KPBZ 221900 AAA
TAFHLG
TAF AMD
KHLG 221901Z 2219/2318 22010KT P6SM OVC060
     FM230200 21005KT P6SM BKN070=



000
FTUS41 KPBZ 221900 AAA
TAFLBE
TAF AMD
KLBE 221901Z 2219/2318 19010KT P6SM OVC025
     FM230200 22006KT P6SM BKN070=



000
FTUS41 KPBZ 221900 AAA
TAFBVI
TAF AMD
KBVI 221900Z 2219/2318 22006KT P6SM OVC035
     FM230300 21005KT P6SM BKN070=



000
FTUS41 KPBZ 221900 AAA
TAFAGC
TAF AMD
KAGC 221900Z 2219/2318 19008KT P6SM OVC040
     FM230200 21005KT P6SM BKN070=



000
FTUS41 KPBZ 221800 AAA
TAFPIT
TAF AMD
KPIT 221859Z 2219/2324 21008KT P6SM OVC040
     FM230200 21005KT P6SM BKN070=



000
FTUS41 KPBZ 221800 AAA
TAFDUJ
TAF AMD
KDUJ 221816Z 2218/2318 21008KT 4SM -RA BR OVC009
     FM221900 21010KT P6SM OVC025
     FM222200 21008KT P6SM OVC050=



000
FTUS41 KPBZ 221700
TAFBVI
TAF
KBVI 221733Z 2218/2318 18012KT P6SM -RA OVC015
     FM222300 22006KT P6SM OVC035
     FM230300 21005KT P6SM BKN070=



000
FTUS41 KPBZ 221700
TAFMGW
TAF
KMGW 221733Z 2218/2318 21010KT P6SM OVC040
     FM230200 21005KT P6SM BKN070=



000
FTUS41 KPBZ 221700
TAFLBE
TAF
KLBE 221733Z 2218/2318 23010G20KT 6SM -RA OVC040
     FM222000 22010KT P6SM OVC025
     FM230200 22006KT P6SM BKN070
     FM230400 21005KT P6SM OVC070=



000
FTUS41 KPBZ 221700
TAFDUJ
TAF
KDUJ 221733Z 2218/2318 21008KT 2SM -FZRA BR OVC009
     FM221900 21010KT P6SM OVC025
     FM222200 21008KT P6SM OVC050=



000
FTUS41 KPBZ 221700
TAFZZV
TAF
KZZV 221733Z 2218/2318 19010KT P6SM OVC050
     FM230200 21008KT P6SM BKN080=



000
FTUS41 KPBZ 221700
TAFAGC
TAF
KAGC 221733Z 2218/2318 19008KT P6SM -RA BKN015 OVC025
     FM222000 22006KT P6SM OVC035
     FM230200 21005KT P6SM BKN070=



000
FTUS41 KPBZ 221700
TAFPIT
TAF
KPIT 221733Z 2218/2324 21008KT P6SM -RA BKN015 OVC025
     FM222000 22006KT P6SM OVC035
     FM230200 21005KT P6SM BKN070=



000
FTUS41 KPBZ 221700
TAFHLG
TAF
KHLG 221733Z 2218/2318 22010KT P6SM -RA BKN015 OVC060
     FM222000 20005KT P6SM OVC035
     FM230200 21005KT P6SM BKN070=



000
FTUS41 KPBZ 221700 AAA
TAFDUJ
TAF AMD
KDUJ 221721Z 2217/2312 21008KT 2SM -FZRA BR OVC009
     FM221900 21012G18KT P6SM OVC025
     FM222200 21008KT P6SM OVC050=



000
FTUS41 KPBZ 221600 AAA
TAFLBE
TAF AMD
KLBE 221656Z 2217/2312 23010G20KT 6SM -RA OVC040
     FM221900 22012G18KT P6SM OVC030
     FM230000 22006KT P6SM OVC050
     FM230400 21005KT P6SM OVC070=



000
FTUS41 KPBZ 221600 AAB
TAFPIT
TAF AMD
KPIT 221633Z 2217/2318 21008KT P6SM -RA BKN015 OVC025
     FM222000 22006KT P6SM OVC035
     FM230200 21005KT P6SM OVC070=



000
FTUS41 KPBZ 221600 AAA
TAFHLG
TAF AMD
KHLG 221605Z 2216/2312 22010KT P6SM -RA BKN015 OVC060
     FM221800 20005KT P6SM OVC035
     FM230000 21005KT P6SM OVC070=



000
FTUS41 KPBZ 221600 AAA
TAFHLG
TAF AMD
KHLG 221605Z 2216/2312 22010KT P6SM -RA BKN015 OVC060
     FM221800 20005KT P6SM OVC035
     FM230000 21005KT P6SM OVC070=



000
FTUS41 KPBZ 221600 AAB
TAFAGC
TAF AMD
KAGC 221604Z 2216/2312 20009KT P6SM -RA OVC035
     FM221800 21011G17KT P6SM OVC030
     FM222100 22006KT P6SM OVC050=



000
FTUS41 KPBZ 221600 AAB
TAFAGC
TAF AMD
KAGC 221604Z 2216/2312 20009KT P6SM -RA OVC035
     FM221800 21011G17KT P6SM OVC030
     FM222100 22006KT P6SM OVC050=



000
FTUS41 KPBZ 221500 AAA
TAFBVI
TAF AMD
KBVI 221529Z 2215/2312 18006KT P6SM OVC025
      TEMPO 2215/2217 5SM -FZRA BKN015
     FM221700 20011G18KT P6SM -RA OVC025
     FM222200 22006KT P6SM OVC050
     FM230300 21005KT P6SM OVC070=



000
FTUS41 KPBZ 221500 AAA
TAFDUJ
TAF AMD
KDUJ 221505Z 2215/2312 19005KT P6SM OVC040
      TEMPO 2215/2219 5SM -FZRA BKN025
     FM221900 21012G18KT P6SM OVC025
     FM222200 21008KT P6SM OVC050=



000
FTUS41 KPBZ 221500 AAA
TAFAGC
TAF AMD
KAGC 221503Z 2215/2312 19007KT P6SM BKN050
      TEMPO 2215/2217 5SM -FZRA BKN025
     FM221700 21011G17KT P6SM OVC030
     FM222100 22006KT P6SM OVC050=



000
FTUS41 KPBZ 221400 AAA
TAFPIT
TAF AMD
KPIT 221457Z 2215/2318 19007KT P6SM BKN050
      TEMPO 2215/2217 5SM -FZRA BKN025
     FM221700 21011G17KT P6SM OVC030
     FM222100 22006KT P6SM OVC050
     FM230200 21005KT P6SM OVC070=



000
FTUS41 KPBZ 221100
TAFLBE
TAF
KLBE 221120Z 2212/2312 27004KT P6SM SKC
     FM221300 21006KT P6SM BKN050
     FM221900 22012G18KT P6SM OVC030
     FM230000 22006KT P6SM OVC050
     FM230400 21005KT P6SM OVC070=



000
FTUS41 KPBZ 221100
TAFZZV
TAF
KZZV 221120Z 2212/2312 19005KT P6SM BKN040 WS015/24030KT
      TEMPO 2212/2215 5SM -FZRA BKN025
     FM221500 21008KT P6SM OVC030 WS015/24040KT
     FM221700 21012KT P6SM OVC040
     FM222200 21008KT P6SM OVC070=



000
FTUS41 KPBZ 221100
TAFMGW
TAF
KMGW 221120Z 2212/2312 VRB03KT P6SM SKC
     FM221400 20005KT P6SM BKN060
     FM221800 21010KT P6SM OVC040
     FM222200 21005KT P6SM OVC070=



000
FTUS41 KPBZ 221100
TAFAGC
TAF
KAGC 221120Z 2212/2312 18008KT P6SM BKN050
     FM221800 20011G17KT P6SM OVC030
     FM222200 22006KT P6SM OVC050
     FM230300 21005KT P6SM OVC070=



000
FTUS41 KPBZ 221100
TAFHLG
TAF
KHLG 221120Z 2212/2312 20008KT P6SM BKN050
      TEMPO 2213/2215 5SM -FZRA BKN040
     FM221700 20005KT P6SM OVC040
     FM230000 21005KT P6SM OVC070=



000
FTUS41 KPBZ 221100
TAFPIT
TAF
KPIT 221120Z 2212/2318 19007KT P6SM BKN050
      TEMPO 2214/2216 5SM -FZRA BKN035
     FM221700 21011G17KT P6SM OVC030
     FM222100 22006KT P6SM OVC050
     FM230200 21005KT P6SM OVC070=



000
FTUS41 KPBZ 221100
TAFDUJ
TAF
KDUJ 221120Z 2212/2312 18008KT P6SM SKC
     FM221300 20005KT P6SM BKN050 WS015/24030KT
     FM221600 21012G19KT P6SM OVC030
      TEMPO 2216/2219 5SM -FZRA
     FM221900 21012G18KT P6SM OVC025
     FM222200 21008KT P6SM OVC050=



000
FTUS41 KPBZ 221100
TAFBVI
TAF
KBVI 221120Z 2212/2312 18006KT P6SM BKN050 WS015/24035KT
      TEMPO 2214/2216 5SM -FZRA BKN035
     FM221600 20011G18KT P6SM -RA OVC025
     FM222200 22006KT P6SM OVC050
     FM230300 21005KT P6SM OVC070=



000
FTUS41 KPBZ 220800 AAA
TAFPIT
TAF AMD
KPIT 220842Z 2209/2312 VRB03KT P6SM SKC
     FM221200 19007KT P6SM BKN050
     FM221700 21011G17KT P6SM OVC030
     FM222100 22006KT P6SM OVC050
     FM230200 21005KT P6SM OVC070=



000
FTUS41 KPBZ 220500
TAFPIT
TAF
KPIT 220534Z 2206/2312 VRB03KT P6SM SKC
     FM221200 19007KT P6SM BKN050
     FM221700 21011G17KT P6SM OVC030
     FM222100 22006KT P6SM OVC050
     FM230200 21005KT P6SM OVC070=



000
FTUS41 KPBZ 220500
TAFMGW
TAF
KMGW 220534Z 2206/2306 VRB03KT P6SM SKC
     FM221400 20005KT P6SM BKN060
     FM221800 21010KT P6SM OVC040
     FM222200 21005KT P6SM OVC070=



000
FTUS41 KPBZ 220500
TAFZZV
TAF
KZZV 220534Z 2206/2306 VRB03KT P6SM SKC
     FM221100 19005KT P6SM BKN040 WS015/24030KT
      TEMPO 2211/2215 5SM -FZRA BKN040
     FM221500 21008KT P6SM OVC030 WS015/24040KT PROB30 2215/2216 -RA
     FM221700 21012KT P6SM OVC040
     FM222200 21008KT P6SM OVC070=



000
FTUS41 KPBZ 220500
TAFLBE
TAF
KLBE 220534Z 2206/2306 27004KT P6SM SKC
     FM221300 21006KT P6SM BKN050
     FM221900 22012G18KT P6SM OVC030
     FM230000 22006KT P6SM OVC050
     FM230400 21005KT P6SM OVC070=



000
FTUS41 KPBZ 220500
TAFHLG
TAF
KHLG 220534Z 2206/2306 VRB03KT P6SM SKC
     FM221100 20008KT P6SM BKN050
     FM221700 20005KT P6SM OVC040
     FM230000 21005KT P6SM OVC070=



000
FTUS41 KPBZ 220500
TAFAGC
TAF
KAGC 220534Z 2206/2306 27004KT P6SM SKC
     FM221200 18008KT P6SM BKN050
     FM221800 20011G17KT P6SM OVC030
     FM222200 22006KT P6SM OVC050
     FM230300 21005KT P6SM OVC070=



000
FTUS41 KPBZ 220500
TAFBVI
TAF
KBVI 220534Z 2206/2306 VRB03KT P6SM SKC
     FM221100 18006KT P6SM BKN050 WS015/24035KT
     FM221600 20011G18KT P6SM -RA OVC025
     FM222200 22006KT P6SM OVC050
     FM230300 21005KT P6SM OVC070
      AMD NOT SKED=



000
FTUS41 KPBZ 220500
TAFDUJ
TAF
KDUJ 220534Z 2206/2306 18008KT P6SM SKC
     FM221300 20005KT P6SM BKN050 WS015/24030KT
     FM221600 21012G19KT P6SM OVC030
      TEMPO 2216/2219 5SM -FZRA
     FM221900 21012G18KT P6SM OVC025 PROB30 2219/2221 -RA
     FM222200 21008KT P6SM OVC050=



000
FTUS41 KPBZ 220200 AAA
TAFPIT
TAF AMD
KPIT 220256Z 2203/2306 VRB03KT P6SM SKC
     FM221200 19007KT P6SM BKN050
     FM221800 21011G17KT P6SM OVC030
     FM230000 22006KT P6SM OVC040=



000
FTUS41 KPBZ 212300
TAFMGW
TAF
KMGW 212327Z 2200/2224 VRB03KT P6SM SKC
     FM221400 20005KT P6SM BKN060
     FM221800 21010KT P6SM OVC040=



000
FTUS41 KPBZ 212300
TAFHLG
TAF
KHLG 212327Z 2200/2224 VRB03KT P6SM SKC
     FM221100 20008KT P6SM BKN050
     FM221700 20005KT P6SM OVC040=



000
FTUS41 KPBZ 212300
TAFLBE
TAF
KLBE 212327Z 2200/2224 27004KT P6SM SKC
     FM221300 21006KT P6SM BKN050
     FM221900 22012G18KT P6SM OVC030=



000
FTUS41 KPBZ 212300
TAFDUJ
TAF
KDUJ 212327Z 2200/2224 27005KT P6SM SKC
     FM221300 20009KT P6SM BKN050
     FM221600 21012G19KT P6SM OVC030
      TEMPO 2216/2219 5SM -FZRA=



000
FTUS41 KPBZ 212300
TAFAGC
TAF
KAGC 212327Z 2200/2224 27004KT P6SM SKC
     FM221200 18008KT P6SM BKN050
     FM221800 20011G17KT P6SM OVC030=



000
FTUS41 KPBZ 212300
TAFPIT
TAF
KPIT 212327Z 2200/2306 27004KT P6SM SKC
     FM221200 19007KT P6SM BKN050
     FM221800 21011G17KT P6SM OVC030
     FM230000 22006KT P6SM OVC040=



000
FTUS41 KPBZ 212300
TAFBVI
TAF
KBVI 212327Z 2200/2224 26004KT P6SM SKC
     FM221100 18007KT P6SM BKN050
     FM221700 20011G18KT P6SM OVC030
      AMD NOT SKED 2202/2212=



000
FTUS41 KPBZ 212300
TAFZZV
TAF
KZZV 212327Z 2200/2224 VRB03KT P6SM SKC
     FM221100 19005KT P6SM BKN060 PROB30 2213/2215 -FZRA
     FM221600 21008KT P6SM OVC040=



000
FTUS41 KPBZ 212100 AAA
TAFPIT
TAF AMD
KPIT 212124Z 2121/2224 28009KT P6SM SCT040
     FM221400 20005KT P6SM OVC100=



000
FTUS41 KPBZ 211800 AAA
TAFDUJ
TAF AMD
KDUJ 211822Z 2118/2218 27007KT P6SM OVC035
     FM220300 24005KT P6SM SCT035
     FM221400 17005KT P6SM OVC100=



000
FTUS41 KPBZ 211700
TAFZZV
TAF
KZZV 211735Z 2118/2218 VRB03KT P6SM SCT040
     FM221200 18005KT P6SM OVC100=



000
FTUS41 KPBZ 211700
TAFHLG
TAF
KHLG 211735Z 2118/2218 32008KT P6SM BKN035
     FM212100 24006KT P6SM SCT040
     FM221400 20005KT P6SM OVC100=



000
FTUS41 KPBZ 211700
TAFMGW
TAF
KMGW 211735Z 2118/2218 VRB03KT P6SM BKN040
     FM212200 24005KT P6SM SCT040
     FM221500 20005KT P6SM OVC100=



000
FTUS41 KPBZ 211700
TAFDUJ
TAF
KDUJ 211735Z 2118/2218 30012KT P6SM OVC025
     FM220300 24005KT P6SM SCT035
     FM221400 17005KT P6SM OVC100=



000
FTUS41 KPBZ 211700
TAFAGC
TAF
KAGC 211735Z 2118/2218 28006KT P6SM OVC040
     FM212300 21006KT P6SM SCT040
     FM221400 20005KT P6SM OVC100=



000
FTUS41 KPBZ 211700
TAFBVI
TAF
KBVI 211735Z 2118/2218 27007KT P6SM BKN040
     FM212300 21006KT P6SM SCT040
     FM221400 20005KT P6SM OVC100=



000
FTUS41 KPBZ 211700
TAFPIT
TAF
KPIT 211735Z 2118/2224 28009KT P6SM BKN040
     FM212300 22005KT P6SM SCT040
     FM221400 20005KT P6SM OVC100=



000
FTUS41 KPBZ 211700
TAFLBE
TAF
KLBE 211735Z 2118/2218 30008KT P6SM -SN OVC035
     FM220100 21006KT P6SM SCT040
     FM221500 20005KT P6SM OVC100=



000
FTUS41 KPBZ 211600 AAC
TAFDUJ
TAF AMD
KDUJ 211609Z 2116/2212 27012KT P6SM BKN025
     FM212300 24010KT P6SM BKN035=



000
FTUS41 KPBZ 211600 AAA
TAFZZV
TAF AMD
KZZV 211608Z 2116/2212 29008KT P6SM SCT035
     FM212200 VRB03KT P6SM SCT040=



000
FTUS41 KPBZ 211600 AAA
TAFHLG
TAF AMD
KHLG 211607Z 2116/2212 29010KT P6SM BKN035
     FM212100 24006KT P6SM SCT040=



000
FTUS41 KPBZ 211600 AAA
TAFLBE
TAF AMD
KLBE 211606Z 2116/2212 29010KT P6SM BKN040
     FM212300 21006KT P6SM SCT040=



000
FTUS41 KPBZ 211600 AAA
TAFBVI
TAF AMD
KBVI 211606Z 2116/2212 29009KT P6SM BKN035
     FM212200 21006KT P6SM SCT040=



000
FTUS41 KPBZ 211600 AAB
TAFPIT
TAF AMD
KPIT 211605Z 2116/2218 30010KT P6SM BKN035
     FM212300 22005KT P6SM SCT040=



000
FTUS41 KPBZ 211600 AAA
TAFAGC
TAF AMD
KAGC 211605Z 2116/2212 31010KT P6SM BKN035
     FM212300 21006KT P6SM SCT040=



000
FTUS41 KPBZ 211500 AAB
TAFDUJ
TAF AMD
KDUJ 211534Z 2116/2212 27012KT P6SM BKN015
     FM212200 24010KT P6SM BKN035=



    US Dept of Commerce
    National Oceanic and Atmospheric Administration
    National Weather Service
    1325 East West Highway
    Silver Spring, MD 20910
    Page Author: NWS Internet Services Team
Disclaimer
Information Quality
Credits
Glossary
Privacy Policy
Freedom of Information Act (FOIA)
About Us
Career Opportunities